createdAt,value
2023-03-11T00:00:25.983Z,91891.80
2023-03-11T00:03:13.530Z,91890.20
2023-03-11T00:05:41.254Z,91889.60
2023-03-11T00:08:08.935Z,91890.80
2023-03-11T00:10:36.473Z,91889.80
2023-03-11T00:13:04.061Z,91885.60
2023-03-11T00:15:31.785Z,91886.20
2023-03-11T00:17:59.551Z,91885.60
2023-03-11T00:20:27.262Z,91879.60
2023-03-11T00:22:54.787Z,91880.40
2023-03-11T00:25:22.297Z,91877.40
2023-03-11T00:27:49.921Z,91872.60
2023-03-11T00:30:17.533Z,91874.80
2023-03-11T00:32:45.038Z,91870.20
2023-03-11T00:35:12.975Z,91863.00
2023-03-11T00:37:40.548Z,91852.80
2023-03-11T00:40:11.066Z,91850.00
2023-03-11T00:42:38.603Z,91849.60
2023-03-11T00:45:06.136Z,91846.60
2023-03-11T00:47:33.684Z,91844.80
2023-03-11T00:50:01.384Z,91839.60
2023-03-11T00:52:29.107Z,91840.60
2023-03-11T00:54:56.597Z,91835.60
2023-03-11T00:57:24.480Z,91831.60
2023-03-11T00:59:52.552Z,91834.20
2023-03-11T01:02:20.425Z,91833.80
2023-03-11T01:04:48.119Z,91834.60
2023-03-11T01:07:15.646Z,91826.60
2023-03-11T01:09:43.200Z,91823.60
2023-03-11T01:12:10.743Z,91817.80
2023-03-11T01:14:38.529Z,91816.40
2023-03-11T01:17:06.002Z,91816.80
2023-03-11T01:19:33.552Z,91816.00
2023-03-11T01:22:01.043Z,91815.80
2023-03-11T01:24:28.586Z,91812.00
2023-03-11T01:26:56.248Z,91811.00
2023-03-11T01:29:23.807Z,91806.00
2023-03-11T01:31:51.645Z,91802.00
2023-03-11T01:34:19.258Z,91805.60
2023-03-11T01:36:46.857Z,91805.00
2023-03-11T01:39:18.285Z,91806.00
2023-03-11T01:41:46.176Z,91806.80
2023-03-11T01:44:13.693Z,91803.40
2023-03-11T01:46:41.211Z,91801.60
2023-03-11T01:49:08.864Z,91794.40
2023-03-11T01:51:36.429Z,91793.20
2023-03-11T01:54:03.901Z,91795.40
2023-03-11T01:56:31.682Z,91790.20
2023-03-11T01:58:59.602Z,91784.80
2023-03-11T02:01:27.164Z,91788.00
2023-03-11T02:03:54.890Z,91790.60
2023-03-11T02:06:22.355Z,91791.20
2023-03-11T02:08:49.812Z,91792.00
2023-03-11T02:11:17.404Z,91788.80
2023-03-11T02:13:44.918Z,91789.20
2023-03-11T02:16:14.118Z,91795.20
2023-03-11T02:18:41.918Z,91804.60
2023-03-11T02:21:09.458Z,91811.60
2023-03-11T02:23:36.993Z,91840.20
2023-03-11T02:26:04.563Z,91834.20
2023-03-11T02:28:32.201Z,91835.40
2023-03-11T02:30:59.691Z,91840.80
2023-03-11T02:33:27.284Z,91844.80
2023-03-11T02:35:55.086Z,91847.80
2023-03-11T02:38:22.791Z,91857.60
2023-03-11T02:40:50.475Z,91855.20
2023-03-11T02:43:18.018Z,91856.80
2023-03-11T02:45:45.846Z,91848.60
2023-03-11T02:48:13.630Z,91849.20
2023-03-11T02:50:41.150Z,91842.00
2023-03-11T02:53:08.702Z,91841.00
2023-03-11T02:55:36.245Z,91842.20
2023-03-11T02:58:03.764Z,91839.60
2023-03-11T03:00:32.220Z,91840.20
2023-03-11T03:02:59.805Z,91835.00
2023-03-11T03:05:27.328Z,91837.40
2023-03-11T03:07:54.930Z,91841.20
2023-03-11T03:10:22.638Z,91832.20
2023-03-11T03:12:50.290Z,91829.40
2023-03-11T03:15:17.842Z,91824.80
2023-03-11T03:17:46.310Z,91815.80
2023-03-11T03:20:14.255Z,91813.80
2023-03-11T03:22:41.981Z,91816.80
2023-03-11T03:25:09.582Z,91819.80
2023-03-11T03:27:37.063Z,91822.20
2023-03-11T03:30:04.610Z,91820.60
2023-03-11T03:32:32.341Z,91821.40
2023-03-11T03:34:59.916Z,91816.80
2023-03-11T03:37:27.602Z,91810.20
2023-03-11T03:39:55.336Z,91807.60
2023-03-11T03:42:25.151Z,91807.00
2023-03-11T03:44:54.932Z,91803.80
2023-03-11T03:47:22.453Z,91804.60
2023-03-11T03:49:49.951Z,91807.80
2023-03-11T03:52:17.565Z,91812.20
2023-03-11T03:54:45.319Z,91818.40
2023-03-11T03:57:12.825Z,91811.80
2023-03-11T03:59:40.438Z,91810.60
2023-03-11T04:02:08.015Z,91812.80
2023-03-11T04:04:35.852Z,91813.00
2023-03-11T04:07:03.325Z,91810.20
2023-03-11T04:09:31.180Z,91803.00
2023-03-11T04:11:59.983Z,91797.80
2023-03-11T04:14:27.650Z,91794.00
2023-03-11T04:16:55.218Z,91784.40
2023-03-11T04:19:22.906Z,91786.60
2023-03-11T04:21:51.949Z,91779.60
2023-03-11T04:24:19.561Z,91773.00
2023-03-11T04:26:47.129Z,91771.20
2023-03-11T04:29:14.660Z,91768.60
2023-03-11T04:31:42.176Z,91772.60
2023-03-11T04:34:09.734Z,91772.00
2023-03-11T04:36:37.343Z,91763.00
2023-03-11T04:39:04.924Z,91757.20
2023-03-11T04:41:32.560Z,91752.40
2023-03-11T04:44:00.546Z,91747.00
2023-03-11T04:46:28.247Z,91740.40
2023-03-11T04:48:55.952Z,91733.60
2023-03-11T04:51:23.466Z,91733.20
2023-03-11T04:53:51.035Z,91721.60
2023-03-11T04:56:18.475Z,91716.80
2023-03-11T04:58:46.006Z,91717.80
2023-03-11T05:01:13.804Z,91717.60
2023-03-11T05:03:41.461Z,91725.40
2023-03-11T05:06:09.281Z,91732.40
2023-03-11T05:08:36.976Z,91730.80
2023-03-11T05:11:04.440Z,91730.20
2023-03-11T05:13:32.096Z,91734.00
2023-03-11T05:15:59.738Z,91729.40
2023-03-11T05:18:27.385Z,91723.00
2023-03-11T05:20:55.073Z,91721.60
2023-03-11T05:23:22.594Z,91714.40
2023-03-11T05:25:50.183Z,91712.60
2023-03-11T05:28:17.731Z,91718.40
2023-03-11T05:30:45.369Z,91717.00
2023-03-11T05:33:12.974Z,91721.20
2023-03-11T05:35:40.529Z,91718.20
2023-03-11T05:38:08.144Z,91725.80
2023-03-11T05:40:35.669Z,91734.40
2023-03-11T05:43:03.222Z,91737.80
2023-03-11T05:45:30.734Z,91753.20
2023-03-11T05:47:58.317Z,91755.60
2023-03-11T05:50:26.032Z,91761.20
2023-03-11T05:52:53.665Z,91761.00
2023-03-11T05:55:21.161Z,91759.20
2023-03-11T05:57:48.678Z,91756.20
2023-03-11T06:00:16.186Z,91756.60
2023-03-11T06:02:43.750Z,91763.00
2023-03-11T06:05:13.498Z,91762.80
2023-03-11T06:07:42.683Z,91760.60
2023-03-11T06:10:10.358Z,91766.40
2023-03-11T06:12:38.687Z,91767.40
2023-03-11T06:15:06.704Z,91764.80
2023-03-11T06:17:34.481Z,91768.60
2023-03-11T06:20:02.023Z,91773.20
2023-03-11T06:22:29.778Z,91774.80
2023-03-11T06:24:57.378Z,91781.20
2023-03-11T06:27:24.950Z,91783.00
2023-03-11T06:29:52.594Z,91791.60
2023-03-11T06:32:20.196Z,91793.60
2023-03-11T06:34:47.790Z,91795.00
2023-03-11T06:37:15.318Z,91797.20
2023-03-11T06:39:42.823Z,91812.20
2023-03-11T06:42:10.394Z,91819.20
2023-03-11T06:44:38.230Z,91827.40
2023-03-11T06:47:05.722Z,91831.80
2023-03-11T06:49:33.268Z,91842.00
2023-03-11T06:52:01.342Z,91850.20
2023-03-11T06:54:29.275Z,91850.80
2023-03-11T06:56:57.015Z,91854.40
2023-03-11T06:59:24.614Z,91855.80
2023-03-11T07:01:52.298Z,91863.60
2023-03-11T07:04:19.817Z,91871.20
2023-03-11T07:06:47.840Z,91880.00
2023-03-11T07:09:15.467Z,91881.20
2023-03-11T07:11:42.948Z,91880.80
2023-03-11T07:14:10.446Z,91888.80
2023-03-11T07:16:38.015Z,91891.60
2023-03-11T07:19:05.605Z,91895.60
2023-03-11T07:21:33.141Z,91892.60
2023-03-11T07:24:00.596Z,91899.20
2023-03-11T07:26:28.078Z,91904.00
2023-03-11T07:28:55.841Z,91907.60
2023-03-11T07:31:23.693Z,91914.80
2023-03-11T07:33:51.411Z,91919.00
2023-03-11T07:36:18.946Z,91920.00
2023-03-11T07:38:46.597Z,91927.20
2023-03-11T07:41:14.308Z,91925.40
2023-03-11T07:43:41.884Z,91931.60
2023-03-11T07:46:09.961Z,91940.20
2023-03-11T07:48:37.610Z,91943.60
2023-03-11T07:51:05.185Z,91945.20
2023-03-11T07:53:32.858Z,91947.00
2023-03-11T07:56:00.327Z,91947.00
2023-03-11T07:58:28.031Z,91945.60
2023-03-11T08:00:56.971Z,91939.80
2023-03-11T08:03:24.451Z,91937.60
2023-03-11T08:05:52.501Z,91939.40
2023-03-11T08:08:20.047Z,91935.60
2023-03-11T08:10:47.639Z,91939.00
2023-03-11T08:13:15.328Z,91947.20
2023-03-11T08:15:43.087Z,91944.00
2023-03-11T08:18:11.136Z,91948.80
2023-03-11T08:20:38.755Z,91948.00
2023-03-11T08:23:06.360Z,91944.20
2023-03-11T08:25:34.055Z,91938.80
2023-03-11T08:28:01.611Z,91939.80
2023-03-11T08:30:29.044Z,91940.80
2023-03-11T08:32:56.859Z,91937.40
2023-03-11T08:35:26.201Z,91932.40
2023-03-11T08:37:53.946Z,91926.80
2023-03-11T08:40:21.424Z,91932.00
2023-03-11T08:42:48.878Z,91933.20
2023-03-11T08:45:16.657Z,91938.40
2023-03-11T08:47:44.635Z,91943.20
2023-03-11T08:50:12.161Z,91943.60
2023-03-11T08:52:39.634Z,91949.60
2023-03-11T08:55:08.987Z,91948.40
2023-03-11T08:57:38.011Z,91956.20
2023-03-11T09:00:05.455Z,91956.80
2023-03-11T09:02:33.078Z,91970.80
2023-03-11T09:05:01.062Z,91970.40
2023-03-11T09:07:28.852Z,91981.80
2023-03-11T09:09:57.567Z,91976.40
2023-03-11T09:12:25.092Z,91991.40
2023-03-11T09:14:54.525Z,91997.20
2023-03-11T09:17:22.249Z,92005.40
2023-03-11T09:19:49.763Z,92011.40
2023-03-11T09:22:17.654Z,92017.40
2023-03-11T09:24:45.159Z,92021.60
2023-03-11T09:27:13.650Z,92023.20
2023-03-11T09:29:41.086Z,92030.20
2023-03-11T09:32:08.537Z,92028.20
2023-03-11T09:34:36.163Z,92034.60
2023-03-11T09:37:03.773Z,92041.40
2023-03-11T09:39:31.409Z,92043.40
2023-03-11T09:41:59.469Z,92043.60
2023-03-11T09:44:26.987Z,92049.60
2023-03-11T09:46:55.694Z,92049.20
2023-03-11T09:49:23.570Z,92054.80
2023-03-11T09:51:51.023Z,92051.00
2023-03-11T09:54:18.483Z,92056.20
2023-03-11T09:56:45.976Z,92051.80
2023-03-11T09:59:13.515Z,92056.40
2023-03-11T10:01:42.665Z,92058.80
2023-03-11T10:04:10.499Z,92062.20
2023-03-11T10:06:37.957Z,92064.20
2023-03-11T10:09:05.555Z,92064.80
2023-03-11T10:11:33.153Z,92060.60
2023-03-11T10:14:00.689Z,92070.00
2023-03-11T10:16:28.454Z,92079.00
2023-03-11T10:18:56.038Z,92075.40
2023-03-11T10:21:25.585Z,92080.00
2023-03-11T10:23:53.244Z,92083.00
2023-03-11T10:26:20.753Z,92088.60
2023-03-11T10:28:48.214Z,92095.20
2023-03-11T10:31:18.839Z,92090.60
2023-03-11T10:33:47.851Z,92094.60
2023-03-11T10:36:15.523Z,92101.00
2023-03-11T10:38:43.079Z,92101.00
2023-03-11T10:41:10.584Z,92103.00
2023-03-11T10:43:38.016Z,92101.80
2023-03-11T10:46:05.501Z,92108.00
2023-03-11T10:48:33.206Z,92117.60
2023-03-11T10:51:01.064Z,92125.40
2023-03-11T10:53:28.855Z,92133.60
2023-03-11T10:55:56.402Z,92142.60
2023-03-11T10:58:23.902Z,92141.40
2023-03-11T11:00:51.447Z,92138.00
2023-03-11T11:03:19.079Z,92141.00
2023-03-11T11:05:46.859Z,92147.00
2023-03-11T11:08:14.360Z,92150.60
2023-03-11T11:10:41.997Z,92165.60
2023-03-11T11:13:09.471Z,92168.60
2023-03-11T11:15:37.021Z,92172.80
2023-03-11T11:18:04.729Z,92181.80
2023-03-11T11:20:32.212Z,92177.80
2023-03-11T11:22:59.659Z,92189.20
2023-03-11T11:25:27.305Z,92192.80
2023-03-11T11:27:56.070Z,92193.80
2023-03-11T11:30:23.602Z,92200.20
2023-03-11T11:32:53.827Z,92205.40
2023-03-11T11:35:21.505Z,92210.80
2023-03-11T11:37:49.030Z,92220.40
2023-03-11T11:40:16.850Z,92223.00
2023-03-11T11:42:44.373Z,92229.00
2023-03-11T11:45:11.900Z,92226.40
2023-03-11T11:47:39.546Z,92236.80
2023-03-11T11:50:07.258Z,92244.20
2023-03-11T11:52:34.941Z,92249.00
2023-03-11T11:55:02.585Z,92259.40
2023-03-11T11:57:30.345Z,92268.80
2023-03-11T11:59:57.894Z,92274.00
2023-03-11T12:02:25.850Z,92269.20
2023-03-11T12:04:53.858Z,92276.80
2023-03-11T12:07:21.373Z,92286.40
2023-03-11T12:09:49.059Z,92280.40
2023-03-11T12:12:16.683Z,92289.00
2023-03-11T12:14:44.206Z,92295.20
2023-03-11T12:17:12.789Z,92304.60
2023-03-11T12:19:40.376Z,92304.60
2023-03-11T12:22:07.848Z,92309.20
2023-03-11T12:24:35.364Z,92314.80
2023-03-11T12:27:02.884Z,92317.40
2023-03-11T12:29:30.489Z,92325.40
2023-03-11T12:31:57.955Z,92327.60
2023-03-11T12:34:25.477Z,92336.40
2023-03-11T12:36:52.997Z,92342.20
2023-03-11T12:39:20.551Z,92349.60
2023-03-11T12:41:50.044Z,92349.00
2023-03-11T12:44:17.500Z,92359.40
2023-03-11T12:46:45.057Z,92367.20
2023-03-11T12:49:12.579Z,92378.80
2023-03-11T12:51:40.101Z,92386.40
2023-03-11T12:54:07.784Z,92401.80
2023-03-11T12:59:01.519Z,92414.40
2023-03-11T13:01:29.233Z,92418.80
2023-03-11T13:03:58.433Z,92426.40
2023-03-11T13:06:25.972Z,92432.40
2023-03-11T13:08:54.777Z,92435.80
2023-03-11T13:11:22.605Z,92439.80
2023-03-11T13:13:50.899Z,92438.80
2023-03-11T13:16:18.537Z,92445.60
2023-03-11T13:18:46.747Z,92443.20
2023-03-11T13:21:14.234Z,92449.00
2023-03-11T13:23:41.886Z,92449.00
2023-03-11T13:26:09.455Z,92458.80
2023-03-11T13:28:37.022Z,92465.60
2023-03-11T13:31:04.597Z,92479.60
2023-03-11T13:33:32.293Z,92480.60
2023-03-11T13:36:00.231Z,92492.80
2023-03-11T13:38:28.064Z,92497.00
2023-03-11T13:40:55.710Z,92512.20
2023-03-11T13:43:23.558Z,92511.20
2023-03-11T13:45:52.155Z,92511.80
2023-03-11T13:48:19.873Z,92510.80
2023-03-11T13:50:48.091Z,92521.40
2023-03-11T13:53:15.739Z,92533.40
2023-03-11T13:55:43.694Z,92538.00
2023-03-11T13:58:11.365Z,92540.60
2023-03-11T14:00:39.539Z,92549.80
2023-03-11T14:03:07.325Z,92562.20
2023-03-11T14:05:35.789Z,92571.60
2023-03-11T14:08:03.375Z,92575.40
2023-03-11T14:10:33.534Z,92577.00
2023-03-11T14:13:01.065Z,92584.00
2023-03-11T14:15:28.763Z,92584.20
2023-03-11T14:17:56.332Z,92594.80
2023-03-11T14:20:25.350Z,92616.60
2023-03-11T14:22:53.316Z,92616.60
2023-03-11T14:25:20.904Z,92625.60
2023-03-11T14:27:48.544Z,92627.20
2023-03-11T14:30:16.369Z,92631.60
2023-03-11T14:32:44.207Z,92636.20
2023-03-11T14:35:12.353Z,92638.00
2023-03-11T14:37:40.149Z,92650.20
2023-03-11T14:40:07.832Z,92647.20
2023-03-11T14:42:35.696Z,92651.80
2023-03-11T14:45:05.328Z,92665.00
2023-03-11T14:47:32.898Z,92671.60
2023-03-11T14:50:00.441Z,92674.80
2023-03-11T14:52:28.107Z,92672.40
2023-03-11T14:54:55.936Z,92678.80
2023-03-11T14:57:23.664Z,92674.80
2023-03-11T14:59:51.604Z,92680.80
2023-03-11T15:02:19.251Z,92686.80
2023-03-11T15:04:46.986Z,92690.20
2023-03-11T15:07:14.778Z,92694.40
2023-03-11T15:09:42.511Z,92691.80
2023-03-11T15:12:10.200Z,92693.80
2023-03-11T15:14:38.232Z,92698.60
2023-03-11T15:17:06.185Z,92698.20
2023-03-11T15:19:34.711Z,92705.40
2023-03-11T15:22:02.400Z,92713.60
2023-03-11T15:24:30.038Z,92719.40
2023-03-11T15:26:57.868Z,92725.80
2023-03-11T15:29:25.669Z,92726.40
2023-03-11T15:31:53.156Z,92732.60
2023-03-11T15:34:20.744Z,92740.20
2023-03-11T15:36:48.470Z,92746.00
2023-03-11T15:39:16.222Z,92750.80
2023-03-11T15:41:45.531Z,92749.00
2023-03-11T15:44:13.141Z,92753.20
2023-03-11T15:46:40.744Z,92754.00
2023-03-11T15:49:12.451Z,92754.20
2023-03-11T15:51:40.034Z,92760.60
2023-03-11T15:54:07.599Z,92767.20
2023-03-11T15:56:35.783Z,92768.80
2023-03-11T15:59:04.050Z,92771.60
2023-03-11T16:01:31.767Z,92774.20
2023-03-11T16:03:59.801Z,92777.60
2023-03-11T16:06:27.529Z,92786.80
2023-03-11T16:08:55.155Z,92799.60
2023-03-11T16:11:22.651Z,92803.40
2023-03-11T16:13:50.253Z,92808.20
2023-03-11T16:16:17.976Z,92815.00
2023-03-11T16:18:45.712Z,92810.60
2023-03-11T16:21:13.305Z,92810.60
2023-03-11T16:23:50.992Z,92823.40
2023-03-11T16:26:20.643Z,92824.80
2023-03-11T16:28:48.352Z,92825.80
2023-03-11T16:31:15.899Z,92833.00
2023-03-11T16:33:43.484Z,92849.80
2023-03-11T16:36:11.151Z,92845.80
2023-03-11T16:38:38.750Z,92859.00
2023-03-11T16:41:06.744Z,92851.40
2023-03-11T16:43:34.430Z,92861.40
2023-03-11T16:46:02.668Z,92870.60
2023-03-11T16:48:30.314Z,92872.60
2023-03-11T16:50:57.838Z,92871.60
2023-03-11T16:53:26.296Z,92877.60
2023-03-11T16:55:53.945Z,92884.00
2023-03-11T16:58:21.750Z,92883.80
2023-03-11T17:00:49.471Z,92890.60
2023-03-11T17:03:21.077Z,92886.80
2023-03-11T17:05:49.210Z,92891.20
2023-03-11T17:08:18.378Z,92897.00
2023-03-11T17:10:46.809Z,92906.40
2023-03-11T17:13:17.102Z,92908.00
2023-03-11T17:15:47.320Z,92913.00
2023-03-11T17:18:14.881Z,92920.80
2023-03-11T17:20:45.807Z,92926.40
2023-03-11T17:23:13.436Z,92927.00
2023-03-11T17:25:41.986Z,92929.20
2023-03-11T17:28:09.924Z,92936.80
2023-03-11T17:30:39.602Z,92931.40
2023-03-11T17:33:07.368Z,92933.20
2023-03-11T17:35:35.080Z,92933.00
2023-03-11T17:38:02.967Z,92939.20
2023-03-11T17:40:31.771Z,92952.60
2023-03-11T17:42:59.829Z,92949.00
2023-03-11T17:45:27.567Z,92955.80
2023-03-11T17:47:55.225Z,92962.80
2023-03-11T17:50:23.067Z,92965.80
2023-03-11T17:52:50.907Z,92954.40
2023-03-11T17:55:18.686Z,92975.20
2023-03-11T17:57:47.085Z,92981.40
2023-03-11T18:00:15.415Z,92976.60
2023-03-11T18:02:43.382Z,92987.20
2023-03-11T18:05:11.259Z,92998.20
2023-03-11T18:07:39.449Z,93007.60
2023-03-11T18:10:09.662Z,93010.80
2023-03-11T18:12:37.646Z,93012.60
2023-03-11T18:15:06.487Z,93018.40
2023-03-11T18:17:33.979Z,93021.20
2023-03-11T18:20:02.255Z,93034.40
2023-03-11T18:22:29.961Z,93041.60
2023-03-11T18:24:57.814Z,93043.80
2023-03-11T18:27:26.062Z,93048.60
2023-03-11T18:29:53.744Z,93050.80
2023-03-11T18:32:21.475Z,93061.60
2023-03-11T18:34:50.066Z,93063.20
2023-03-11T18:37:17.660Z,93062.80
2023-03-11T18:39:45.230Z,93064.80
2023-03-11T18:42:14.299Z,93075.60
2023-03-11T18:44:42.337Z,93081.80
2023-03-11T18:47:09.916Z,93079.20
2023-03-11T18:49:37.953Z,93086.60
2023-03-11T18:52:05.801Z,93089.80
2023-03-11T18:54:33.321Z,93097.80
2023-03-11T18:57:01.075Z,93100.80
2023-03-11T18:59:28.776Z,93102.20
2023-03-11T19:01:56.412Z,93111.80
2023-03-11T19:04:24.265Z,93118.40
2023-03-11T19:06:52.130Z,93122.20
2023-03-11T19:09:19.960Z,93128.40
2023-03-11T19:11:47.482Z,93129.00
2023-03-11T19:14:15.108Z,93139.00
2023-03-11T19:16:42.886Z,93134.00
2023-03-11T19:19:11.906Z,93148.60
2023-03-11T19:21:39.810Z,93150.20
2023-03-11T19:24:07.433Z,93148.20
2023-03-11T19:26:44.830Z,93162.40
2023-03-11T19:29:14.260Z,93165.80
2023-03-11T19:31:43.808Z,93175.40
2023-03-11T19:34:21.867Z,93182.40
2023-03-11T19:36:50.212Z,93179.80
2023-03-11T19:39:18.117Z,93189.40
2023-03-11T19:41:46.099Z,93194.60
2023-03-11T19:44:13.862Z,93200.80
2023-03-11T19:46:41.545Z,93194.20
2023-03-11T19:49:09.218Z,93205.00
2023-03-11T19:51:49.506Z,93205.00
2023-03-11T19:54:18.086Z,93211.00
2023-03-11T19:56:45.813Z,93212.00
2023-03-11T19:59:14.297Z,93213.80
2023-03-11T20:01:44.967Z,93220.20
2023-03-11T20:04:15.476Z,93223.00
2023-03-11T20:06:43.829Z,93226.60
2023-03-11T20:09:12.802Z,93233.60
2023-03-11T20:11:40.903Z,93235.60
2023-03-11T20:14:08.502Z,93230.40
2023-03-11T20:16:36.314Z,93240.40
2023-03-11T20:19:04.556Z,93244.80
2023-03-11T20:21:32.538Z,93247.40
2023-03-11T20:24:02.589Z,93250.20
2023-03-11T20:26:30.339Z,93259.00
2023-03-11T20:28:58.376Z,93265.00
2023-03-11T20:31:26.705Z,93268.40
2023-03-11T20:33:54.692Z,93261.60
2023-03-11T20:36:22.403Z,93269.80
2023-03-11T20:38:50.266Z,93270.80
2023-03-11T20:41:18.003Z,93277.40
2023-03-11T20:43:45.704Z,93276.00
2023-03-11T20:46:13.468Z,93276.60
2023-03-11T20:48:41.299Z,93281.40
2023-03-11T20:51:09.147Z,93285.60
2023-03-11T20:53:37.043Z,93288.00
2023-03-11T20:56:04.904Z,93293.60
2023-03-11T20:58:32.647Z,93295.20
2023-03-11T21:01:00.617Z,93294.40
2023-03-11T21:03:28.783Z,93301.00
2023-03-11T21:05:56.785Z,93296.00
2023-03-11T21:08:25.151Z,93293.00
2023-03-11T21:10:52.921Z,93294.80
2023-03-11T21:13:20.642Z,93293.40
2023-03-11T21:15:48.541Z,93301.60
2023-03-11T21:18:16.392Z,93298.40
2023-03-11T21:20:44.017Z,93313.40
2023-03-11T21:23:11.632Z,93314.00
2023-03-11T21:25:42.642Z,93316.60
2023-03-11T21:28:10.310Z,93324.60
2023-03-11T21:30:37.937Z,93321.40
2023-03-11T21:33:05.785Z,93321.00
2023-03-11T21:35:33.400Z,93324.00
2023-03-11T21:38:01.181Z,93327.00
2023-03-11T21:40:28.960Z,93334.00
2023-03-11T21:42:56.563Z,93332.20
2023-03-11T21:45:24.548Z,93327.20
2023-03-11T21:47:52.345Z,93325.00
2023-03-11T21:50:20.025Z,93329.80
2023-03-11T21:52:47.834Z,93334.00
2023-03-11T21:55:15.674Z,93335.40
2023-03-11T21:57:43.332Z,93336.40
2023-03-11T22:00:10.985Z,93340.60
2023-03-11T22:02:38.633Z,93343.00
2023-03-11T22:05:06.964Z,93343.00
2023-03-11T22:07:34.695Z,93345.40
2023-03-11T22:10:02.565Z,93346.20
2023-03-11T22:12:30.756Z,93352.00
2023-03-11T22:14:58.378Z,93357.40
2023-03-11T22:17:26.148Z,93355.40
2023-03-11T22:19:53.713Z,93357.40
2023-03-11T22:22:21.299Z,93354.40
2023-03-11T22:24:48.839Z,93358.20
2023-03-11T22:27:16.382Z,93357.40
2023-03-11T22:29:44.587Z,93357.60
2023-03-11T22:32:12.101Z,93359.20
2023-03-11T22:34:39.941Z,93359.40
2023-03-11T22:37:07.501Z,93360.40
2023-03-11T22:39:34.976Z,93362.20
2023-03-11T22:42:02.511Z,93364.20
2023-03-11T22:44:30.077Z,93361.20
2023-03-11T22:46:58.197Z,93367.40
2023-03-11T22:49:25.771Z,93367.60
2023-03-11T22:51:53.548Z,93365.00
2023-03-11T22:54:23.605Z,93364.20
2023-03-11T22:56:51.711Z,93363.20
2023-03-11T22:59:19.326Z,93367.20
2023-03-11T23:01:49.180Z,93370.20
2023-03-11T23:04:17.209Z,93367.60
2023-03-11T23:06:44.890Z,93367.60
2023-03-11T23:09:12.343Z,93365.80
2023-03-11T23:11:39.951Z,93370.20
2023-03-11T23:14:11.123Z,93371.20
2023-03-11T23:16:38.751Z,93372.80
2023-03-11T23:19:06.208Z,93374.20
2023-03-11T23:21:33.812Z,93383.40
2023-03-11T23:24:01.681Z,93378.20
2023-03-11T23:26:29.199Z,93379.20
2023-03-11T23:28:56.798Z,93383.20
2023-03-11T23:31:24.489Z,93388.40
2023-03-11T23:33:52.253Z,93389.40
2023-03-11T23:36:19.820Z,93383.80
2023-03-11T23:38:47.467Z,93390.60
2023-03-11T23:41:14.988Z,93393.40
2023-03-11T23:43:48.024Z,93395.40
2023-03-11T23:46:22.838Z,93395.20
2023-03-11T23:49:03.667Z,93395.00
2023-03-11T23:51:51.912Z,93399.40
2023-03-11T23:54:19.616Z,93404.20
2023-03-11T23:56:47.267Z,93403.60
2023-03-11T23:59:14.805Z,93415.80
